createdAt,value
2018-11-29T00:00:37.214Z,6.00
2018-11-29T00:03:07.514Z,6.00
2018-11-29T00:05:36.578Z,6.00
2018-11-29T00:08:05.773Z,6.00
2018-11-29T00:10:34.991Z,6.00
2018-11-29T00:13:04.175Z,6.00
2018-11-29T00:15:33.216Z,6.00
2018-11-29T00:18:02.411Z,6.00
2018-11-29T00:20:31.714Z,6.00
2018-11-29T00:23:01.101Z,6.00
2018-11-29T00:25:30.118Z,6.00
2018-11-29T00:27:59.351Z,6.00
2018-11-29T00:30:28.731Z,6.00
2018-11-29T00:32:57.765Z,6.00
2018-11-29T00:35:26.835Z,6.00
2018-11-29T00:37:55.851Z,6.00
2018-11-29T00:40:25.150Z,6.00
2018-11-29T00:42:54.153Z,5.90
2018-11-29T00:45:24.056Z,6.00
2018-11-29T00:47:53.155Z,6.00
2018-11-29T00:50:22.595Z,6.00
2018-11-29T00:52:52.248Z,6.00
2018-11-29T00:55:23.212Z,6.00
2018-11-29T00:57:53.030Z,5.90
2018-11-29T01:00:24.462Z,5.90
2018-11-29T01:02:54.388Z,5.90
2018-11-29T01:05:23.662Z,5.80
2018-11-29T01:07:52.720Z,5.90
2018-11-29T01:10:22.296Z,5.90
2018-11-29T01:12:51.437Z,5.90
2018-11-29T01:15:21.584Z,5.90
2018-11-29T01:17:51.119Z,5.90
2018-11-29T01:20:20.973Z,5.80
2018-11-29T01:22:50.393Z,5.80
2018-11-29T01:25:19.594Z,5.80
2018-11-29T01:27:49.558Z,5.80
2018-11-29T01:30:21.605Z,5.80
2018-11-29T01:32:50.599Z,5.80
2018-11-29T01:35:20.959Z,5.90
2018-11-29T01:37:50.300Z,5.90
2018-11-29T01:40:23.498Z,5.90
2018-11-29T01:42:55.095Z,6.00
2018-11-29T01:45:24.685Z,5.90
2018-11-29T01:47:53.747Z,5.90
2018-11-29T01:50:23.165Z,5.90
2018-11-29T01:52:52.589Z,5.90
2018-11-29T01:55:21.644Z,5.90
2018-11-29T01:57:50.739Z,5.90
2018-11-29T02:00:19.853Z,5.90
2018-11-29T02:02:50.308Z,5.90
2018-11-29T02:05:19.745Z,5.90
2018-11-29T02:07:48.799Z,5.90
2018-11-29T02:10:23.310Z,5.90
2018-11-29T02:12:52.375Z,5.90
2018-11-29T02:15:21.420Z,5.90
2018-11-29T02:17:50.882Z,5.90
2018-11-29T02:20:20.311Z,5.80
2018-11-29T02:22:49.382Z,5.80
2018-11-29T02:25:18.456Z,5.80
2018-11-29T02:27:47.625Z,5.70
2018-11-29T02:30:19.903Z,5.80
2018-11-29T02:32:49.360Z,5.80
2018-11-29T02:35:18.765Z,5.80
2018-11-29T02:37:47.776Z,5.80
2018-11-29T02:40:17.991Z,5.80
2018-11-29T02:42:47.980Z,5.80
2018-11-29T02:45:21.997Z,5.80
2018-11-29T02:47:51.417Z,5.70
2018-11-29T02:50:20.388Z,5.70
2018-11-29T02:52:49.435Z,5.80
2018-11-29T02:55:18.679Z,5.80
2018-11-29T02:57:54.231Z,5.80
2018-11-29T03:00:23.247Z,5.80
2018-11-29T03:02:52.283Z,5.80
2018-11-29T03:05:21.315Z,5.80
2018-11-29T03:07:50.397Z,5.70
2018-11-29T03:10:24.791Z,5.70
2018-11-29T03:12:54.166Z,5.70
2018-11-29T03:15:23.649Z,5.70
2018-11-29T03:17:52.656Z,5.70
2018-11-29T03:20:21.710Z,5.70
2018-11-29T03:22:50.776Z,5.70
2018-11-29T03:25:20.195Z,5.60
2018-11-29T03:27:49.202Z,5.70
2018-11-29T03:30:20.269Z,5.70
2018-11-29T03:32:49.331Z,5.60
2018-11-29T03:35:18.398Z,5.50
2018-11-29T03:37:47.814Z,5.50
2018-11-29T03:40:17.504Z,5.50
2018-11-29T03:42:47.056Z,5.50
2018-11-29T03:45:16.918Z,5.50
2018-11-29T03:47:46.204Z,5.50
2018-11-29T03:50:17.214Z,5.50
2018-11-29T03:52:46.836Z,5.50
2018-11-29T03:55:15.881Z,5.50
2018-11-29T03:57:45.015Z,5.50
2018-11-29T04:00:17.267Z,5.50
2018-11-29T04:02:47.298Z,5.50
2018-11-29T04:05:16.365Z,5.50
2018-11-29T04:07:45.463Z,5.50
2018-11-29T04:10:16.082Z,5.50
2018-11-29T04:12:45.147Z,5.50
2018-11-29T04:15:15.209Z,5.50
2018-11-29T04:17:44.510Z,5.50
2018-11-29T04:20:14.839Z,5.50
2018-11-29T04:22:43.967Z,5.50
2018-11-29T04:25:14.000Z,5.50
2018-11-29T04:27:43.408Z,5.50
2018-11-29T04:30:14.362Z,5.50
2018-11-29T04:32:44.164Z,5.50
2018-11-29T04:35:13.721Z,5.50
2018-11-29T04:37:43.158Z,5.50
2018-11-29T04:40:15.734Z,5.40
2018-11-29T04:42:45.266Z,5.40
2018-11-29T04:45:15.715Z,5.40
2018-11-29T04:47:44.905Z,5.30
2018-11-29T04:50:14.398Z,5.30
2018-11-29T04:52:43.517Z,5.30
2018-11-29T04:55:12.592Z,5.30
2018-11-29T04:57:41.650Z,5.20
2018-11-29T05:00:14.806Z,5.30
2018-11-29T05:02:43.925Z,5.20
2018-11-29T05:05:13.591Z,5.20
2018-11-29T05:07:42.706Z,5.20
2018-11-29T05:10:16.351Z,5.20
2018-11-29T05:12:46.106Z,5.20
2018-11-29T05:15:15.100Z,5.20
2018-11-29T05:17:44.174Z,5.20
2018-11-29T05:20:13.558Z,5.20
2018-11-29T05:22:42.594Z,5.20
2018-11-29T05:25:11.645Z,5.20
2018-11-29T05:27:40.682Z,5.20
2018-11-29T05:30:12.327Z,5.20
2018-11-29T05:32:41.341Z,5.20
2018-11-29T05:35:11.770Z,5.20
2018-11-29T05:37:41.308Z,5.20
2018-11-29T05:40:11.654Z,5.20
2018-11-29T05:42:40.676Z,5.20
2018-11-29T05:45:11.095Z,5.10
2018-11-29T05:47:40.687Z,5.10
2018-11-29T05:50:11.135Z,5.10
2018-11-29T05:52:41.693Z,5.00
2018-11-29T05:55:11.128Z,5.10
2018-11-29T05:57:40.248Z,5.10
2018-11-29T06:00:12.783Z,5.10
2018-11-29T06:02:42.166Z,5.10
2018-11-29T06:05:12.578Z,5.10
2018-11-29T06:07:41.652Z,5.10
2018-11-29T06:10:10.675Z,5.10
2018-11-29T06:12:39.790Z,5.10
2018-11-29T06:15:10.464Z,5.10
2018-11-29T06:17:39.852Z,5.10
2018-11-29T06:20:16.139Z,5.10
2018-11-29T06:22:45.555Z,5.10
2018-11-29T06:25:17.965Z,5.10
2018-11-29T06:27:47.357Z,5.00
2018-11-29T06:30:19.844Z,5.10
2018-11-29T06:32:49.995Z,5.00
2018-11-29T06:35:19.576Z,5.00
2018-11-29T06:37:49.113Z,5.00
2018-11-29T06:40:18.561Z,5.00
2018-11-29T06:42:47.609Z,5.00
2018-11-29T06:45:19.061Z,5.00
2018-11-29T06:47:49.278Z,5.00
2018-11-29T06:50:18.672Z,5.00
2018-11-29T06:52:48.879Z,5.00
2018-11-29T06:55:21.904Z,5.00
2018-11-29T06:57:51.266Z,5.00
2018-11-29T07:00:27.761Z,5.00
2018-11-29T07:02:56.813Z,5.00
2018-11-29T07:05:25.992Z,5.00
2018-11-29T07:07:55.014Z,5.00
2018-11-29T07:10:29.403Z,5.00
2018-11-29T07:12:58.519Z,5.00
2018-11-29T07:15:28.256Z,5.00
2018-11-29T07:17:57.400Z,5.10
2018-11-29T07:20:26.496Z,5.20
2018-11-29T07:22:55.606Z,5.20
2018-11-29T07:25:25.003Z,5.20
2018-11-29T07:27:54.394Z,5.20
2018-11-29T07:30:23.427Z,5.20
2018-11-29T07:32:52.877Z,5.20
2018-11-29T07:35:22.109Z,5.30
2018-11-29T07:37:51.159Z,5.30
2018-11-29T07:40:20.364Z,5.30
2018-11-29T07:42:53.966Z,5.30
2018-11-29T07:45:23.040Z,5.40
2018-11-29T07:47:52.196Z,5.40
2018-11-29T07:50:22.551Z,5.50
2018-11-29T07:52:52.291Z,5.50
2018-11-29T07:55:22.072Z,5.50
2018-11-29T07:57:52.480Z,5.50
2018-11-29T08:00:22.001Z,5.50
2018-11-29T08:02:51.048Z,5.50
2018-11-29T08:05:20.136Z,5.50
2018-11-29T08:07:49.457Z,5.50
2018-11-29T08:10:19.723Z,5.60
2018-11-29T08:12:49.196Z,5.60
2018-11-29T08:15:20.492Z,5.70
2018-11-29T08:17:50.184Z,5.70
2018-11-29T08:20:20.287Z,5.70
2018-11-29T08:22:49.512Z,5.70
2018-11-29T08:25:18.542Z,5.70
2018-11-29T08:27:47.596Z,5.70
2018-11-29T08:30:17.320Z,5.70
2018-11-29T08:32:46.389Z,5.70
2018-11-29T08:35:16.374Z,5.70
2018-11-29T08:37:47.292Z,5.80
2018-11-29T08:40:20.102Z,5.80
2018-11-29T08:42:49.373Z,5.80
2018-11-29T08:45:18.439Z,5.90
2018-11-29T08:47:47.489Z,5.90
2018-11-29T08:50:16.590Z,5.90
2018-11-29T08:52:46.702Z,6.00
2018-11-29T08:55:17.066Z,6.00
2018-11-29T08:57:47.241Z,6.10
2018-11-29T09:00:18.603Z,6.20
2018-11-29T09:02:47.780Z,6.20
2018-11-29T09:05:17.269Z,6.20
2018-11-29T09:07:47.442Z,6.30
2018-11-29T09:10:21.133Z,6.50
2018-11-29T09:12:50.255Z,6.70
2018-11-29T09:15:19.722Z,6.80
2018-11-29T09:17:49.145Z,6.80
2018-11-29T09:20:19.930Z,6.70
2018-11-29T09:22:49.616Z,6.80
2018-11-29T09:25:20.500Z,6.80
2018-11-29T09:27:49.532Z,6.80
2018-11-29T09:30:20.614Z,6.90
2018-11-29T09:32:51.029Z,6.80
2018-11-29T09:35:20.362Z,6.80
2018-11-29T09:37:49.515Z,6.80
2018-11-29T09:40:19.272Z,6.80
2018-11-29T09:42:48.492Z,6.70
2018-11-29T09:45:18.744Z,6.80
2018-11-29T09:47:49.068Z,6.70
2018-11-29T09:50:18.429Z,6.80
2018-11-29T09:52:47.672Z,6.80
2018-11-29T09:55:17.894Z,6.90
2018-11-29T09:57:49.306Z,6.90
2018-11-29T10:00:28.015Z,6.80
2018-11-29T10:03:00.233Z,6.80
2018-11-29T10:05:29.656Z,6.90
2018-11-29T10:07:59.824Z,6.90
2018-11-29T10:10:29.593Z,6.90
2018-11-29T10:12:58.841Z,6.90
2018-11-29T10:15:28.796Z,6.90
2018-11-29T10:17:58.305Z,7.10
2018-11-29T10:20:27.554Z,7.20
2018-11-29T10:22:56.636Z,7.30
2018-11-29T10:25:25.700Z,7.40
2018-11-29T10:27:56.642Z,7.50
2018-11-29T10:30:29.215Z,7.50
2018-11-29T10:32:58.324Z,7.50
2018-11-29T10:35:27.391Z,7.40
2018-11-29T10:37:56.437Z,7.50
2018-11-29T10:40:25.491Z,7.50
2018-11-29T10:42:54.536Z,7.50
2018-11-29T10:45:23.658Z,7.50
2018-11-29T10:47:53.578Z,7.60
2018-11-29T10:50:22.603Z,7.60
2018-11-29T10:52:51.652Z,7.60
2018-11-29T10:55:21.151Z,7.50
2018-11-29T10:57:50.305Z,7.60
2018-11-29T11:00:27.490Z,7.60
2018-11-29T11:03:03.329Z,7.70
2018-11-29T11:05:33.098Z,7.60
2018-11-29T11:08:08.156Z,7.60
2018-11-29T11:10:31.403Z,7.50
2018-11-29T11:13:00.477Z,7.30
2018-11-29T11:15:29.728Z,7.30
2018-11-29T11:17:58.913Z,7.20
2018-11-29T11:20:28.431Z,7.20
2018-11-29T11:22:57.863Z,7.20
2018-11-29T11:25:27.363Z,7.30
2018-11-29T11:27:56.405Z,7.30
2018-11-29T11:30:25.501Z,7.40
2018-11-29T11:32:54.838Z,7.40
2018-11-29T11:35:24.325Z,7.40
2018-11-29T11:37:53.354Z,7.40
2018-11-29T11:40:22.447Z,7.40
2018-11-29T11:42:51.451Z,7.40
2018-11-29T11:45:21.433Z,7.40
2018-11-29T11:47:50.863Z,7.40
2018-11-29T11:50:22.960Z,7.40
2018-11-29T11:52:52.761Z,7.30
2018-11-29T11:55:22.174Z,7.30
2018-11-29T11:57:51.531Z,7.20
2018-11-29T12:00:26.035Z,7.30
2018-11-29T12:02:58.286Z,7.30
2018-11-29T12:05:27.574Z,7.40
2018-11-29T12:07:57.003Z,7.40
2018-11-29T12:10:26.254Z,7.30
2018-11-29T12:12:55.685Z,7.30
2018-11-29T12:15:24.732Z,7.30
2018-11-29T12:17:53.789Z,7.20
2018-11-29T12:20:22.854Z,7.20
2018-11-29T12:22:51.835Z,7.20
2018-11-29T12:25:22.819Z,7.20
2018-11-29T12:27:52.479Z,7.10
2018-11-29T12:30:27.754Z,7.10
2018-11-29T12:32:58.094Z,7.00
2018-11-29T12:35:27.219Z,7.00
2018-11-29T12:37:56.275Z,6.90
2018-11-29T12:40:25.495Z,6.90
2018-11-29T12:42:54.552Z,6.90
2018-11-29T12:45:24.111Z,6.90
2018-11-29T12:47:53.197Z,6.90
2018-11-29T12:50:24.517Z,7.00
2018-11-29T12:52:53.664Z,7.00
2018-11-29T12:55:24.936Z,7.00
2018-11-29T12:58:05.370Z,6.90
2018-11-29T13:00:24.709Z,6.90
2018-11-29T13:02:54.949Z,6.90
2018-11-29T13:05:24.164Z,7.00
2018-11-29T13:07:53.360Z,7.00
2018-11-29T13:10:23.816Z,7.00
2018-11-29T13:12:52.798Z,7.00
2018-11-29T13:15:28.556Z,7.00
2018-11-29T13:17:58.555Z,6.90
2018-11-29T13:20:32.386Z,6.80
2018-11-29T13:22:56.914Z,6.70
2018-11-29T13:25:27.121Z,6.60
2018-11-29T13:27:56.527Z,6.60
2018-11-29T13:30:25.839Z,6.60
2018-11-29T13:32:56.794Z,6.50
2018-11-29T13:35:30.448Z,6.40
2018-11-29T13:38:02.894Z,6.30
2018-11-29T13:40:32.150Z,6.20
2018-11-29T13:43:01.186Z,6.20
2018-11-29T13:45:30.190Z,6.20
2018-11-29T13:47:59.209Z,6.30
2018-11-29T13:50:28.231Z,6.40
2018-11-29T13:52:57.283Z,6.40
2018-11-29T13:55:26.351Z,6.50
2018-11-29T13:57:55.764Z,6.60
2018-11-29T14:00:25.021Z,6.60
2018-11-29T14:02:59.603Z,6.70
2018-11-29T14:05:28.714Z,6.70
2018-11-29T14:07:57.790Z,6.60
2018-11-29T14:10:26.856Z,6.60
2018-11-29T14:12:56.274Z,6.60
2018-11-29T14:15:26.827Z,6.60
2018-11-29T14:17:55.923Z,6.60
2018-11-29T14:20:25.145Z,6.60
2018-11-29T14:22:55.114Z,6.60
2018-11-29T14:25:24.179Z,6.60
2018-11-29T14:27:56.521Z,6.60
2018-11-29T14:30:26.553Z,6.60
2018-11-29T14:32:57.333Z,6.60
2018-11-29T14:35:26.794Z,6.60
2018-11-29T14:37:56.198Z,6.60
2018-11-29T14:40:26.363Z,6.70
2018-11-29T14:42:55.517Z,6.70
2018-11-29T14:45:25.887Z,6.60
2018-11-29T14:47:55.726Z,6.60
2018-11-29T14:50:27.610Z,6.50
2018-11-29T14:52:56.740Z,6.60
2018-11-29T14:55:25.924Z,6.50
2018-11-29T14:57:55.139Z,6.50
2018-11-29T15:00:24.203Z,6.50
2018-11-29T15:02:53.724Z,6.50
2018-11-29T15:05:29.000Z,6.50
2018-11-29T15:07:58.807Z,6.40
2018-11-29T15:10:27.888Z,6.40
2018-11-29T15:12:57.026Z,6.40
2018-11-29T15:15:26.038Z,6.40
2018-11-29T15:17:55.404Z,6.40
2018-11-29T15:20:34.312Z,6.30
2018-11-29T15:23:03.633Z,6.30
2018-11-29T15:25:33.216Z,6.30
2018-11-29T15:28:02.189Z,6.30
2018-11-29T15:30:31.514Z,6.30
2018-11-29T15:33:01.827Z,6.20
2018-11-29T15:35:30.989Z,6.20
2018-11-29T15:38:00.341Z,6.20
2018-11-29T15:40:29.405Z,6.20
2018-11-29T15:42:58.531Z,6.20
2018-11-29T15:45:28.052Z,6.20
2018-11-29T15:47:57.193Z,6.20
2018-11-29T15:50:26.355Z,6.20
2018-11-29T15:52:55.361Z,6.20
2018-11-29T15:55:24.486Z,6.20
2018-11-29T15:57:54.091Z,6.20
2018-11-29T16:00:27.625Z,6.20
2018-11-29T16:03:03.097Z,6.20
2018-11-29T16:05:32.320Z,6.20
2018-11-29T16:08:01.335Z,6.10
2018-11-29T16:10:30.383Z,6.10
2018-11-29T16:12:59.540Z,6.10
2018-11-29T16:15:29.135Z,6.10
2018-11-29T16:17:58.935Z,6.10
2018-11-29T16:20:32.184Z,6.10
2018-11-29T16:23:01.727Z,6.10
2018-11-29T16:25:30.804Z,6.10
2018-11-29T16:27:59.868Z,6.00
2018-11-29T16:30:31.867Z,6.00
2018-11-29T16:33:04.584Z,6.00
2018-11-29T16:35:33.733Z,6.00
2018-11-29T16:38:02.846Z,5.90
2018-11-29T16:40:31.993Z,5.90
2018-11-29T16:43:01.067Z,5.90
2018-11-29T16:45:30.234Z,5.90
2018-11-29T16:47:59.285Z,5.90
2018-11-29T16:50:28.499Z,5.80
2018-11-29T16:52:57.762Z,5.80
2018-11-29T16:55:26.843Z,5.80
2018-11-29T16:57:58.451Z,5.80
2018-11-29T17:00:27.618Z,5.70
2018-11-29T17:02:56.621Z,5.70
2018-11-29T17:05:25.651Z,5.70
2018-11-29T17:07:54.688Z,5.70
2018-11-29T17:10:24.544Z,5.70
2018-11-29T17:12:57.282Z,5.70
2018-11-29T17:15:26.373Z,5.70
2018-11-29T17:17:55.546Z,5.70
2018-11-29T17:20:24.891Z,5.70
2018-11-29T17:23:00.468Z,5.70
2018-11-29T17:25:29.935Z,5.70
2018-11-29T17:27:59.124Z,5.60
2018-11-29T17:30:28.691Z,5.60
2018-11-29T17:32:59.071Z,5.60
2018-11-29T17:35:28.234Z,5.60
2018-11-29T17:37:59.084Z,5.60
2018-11-29T17:40:29.087Z,5.50
2018-11-29T17:42:58.182Z,5.50
2018-11-29T17:45:29.304Z,5.40
2018-11-29T17:48:05.076Z,5.40
2018-11-29T17:50:37.291Z,5.30
2018-11-29T17:53:06.833Z,5.30
2018-11-29T17:55:36.703Z,5.30
2018-11-29T17:58:11.557Z,5.30
2018-11-29T18:00:40.816Z,5.30
2018-11-29T18:03:09.961Z,5.20
2018-11-29T18:05:39.000Z,5.20
2018-11-29T18:08:08.448Z,5.10
2018-11-29T18:10:39.477Z,5.10
2018-11-29T18:13:40.654Z,5.00
2018-11-29T18:16:09.693Z,5.00
2018-11-29T18:18:40.678Z,4.90
2018-11-29T18:21:13.039Z,4.90
2018-11-29T18:23:46.887Z,4.90
2018-11-29T18:26:11.211Z,4.80
2018-11-29T18:28:40.256Z,4.90
2018-11-29T18:31:09.291Z,4.90
2018-11-29T18:33:38.451Z,4.90
2018-11-29T18:36:07.478Z,4.90
2018-11-29T18:38:36.631Z,5.00
2018-11-29T18:41:05.845Z,5.00
2018-11-29T18:43:34.910Z,5.00
2018-11-29T18:46:04.300Z,5.00
2018-11-29T18:48:34.150Z,5.10
2018-11-29T18:51:03.198Z,5.10
2018-11-29T18:53:32.349Z,5.10
2018-11-29T18:56:01.736Z,5.20
2018-11-29T18:58:30.875Z,5.20
2018-11-29T19:00:59.955Z,5.20
2018-11-29T19:03:29.038Z,5.20
2018-11-29T19:05:58.109Z,5.20
2018-11-29T19:08:27.474Z,5.20
2018-11-29T19:10:56.554Z,5.10
2018-11-29T19:13:25.565Z,5.00
2018-11-29T19:15:54.622Z,5.00
2018-11-29T19:18:24.364Z,5.00
2018-11-29T19:20:53.384Z,5.10
2018-11-29T19:23:22.443Z,5.00
2018-11-29T19:25:51.464Z,5.00
2018-11-29T19:28:20.511Z,5.00
2018-11-29T19:30:49.537Z,5.00
2018-11-29T19:33:21.686Z,5.00
2018-11-29T19:35:51.891Z,5.00
2018-11-29T19:38:21.186Z,5.00
2018-11-29T19:40:50.209Z,5.00
2018-11-29T19:43:19.270Z,5.00
2018-11-29T19:45:48.399Z,5.00
2018-11-29T19:48:17.447Z,5.00
2018-11-29T19:50:46.566Z,5.00
2018-11-29T19:53:17.275Z,5.00
2018-11-29T19:55:46.989Z,5.00
2018-11-29T19:58:16.069Z,5.00
2018-11-29T20:00:45.186Z,5.00
2018-11-29T20:03:14.445Z,5.00
2018-11-29T20:05:43.541Z,5.00
2018-11-29T20:08:12.670Z,5.00
2018-11-29T20:10:41.843Z,5.00
2018-11-29T20:13:12.345Z,5.00
2018-11-29T20:15:43.152Z,5.00
2018-11-29T20:18:13.186Z,4.90
2018-11-29T20:20:42.193Z,4.90
2018-11-29T20:23:11.822Z,4.80
2018-11-29T20:25:42.418Z,4.80
2018-11-29T20:28:11.533Z,4.80
2018-11-29T20:30:40.613Z,4.80
2018-11-29T20:33:09.659Z,4.80
2018-11-29T20:35:39.056Z,4.70
2018-11-29T20:38:08.439Z,4.70
2018-11-29T20:40:39.530Z,4.70
2018-11-29T20:43:08.550Z,4.70
2018-11-29T20:45:40.397Z,4.70
2018-11-29T20:48:14.081Z,4.70
2018-11-29T20:50:43.144Z,4.70
2018-11-29T20:53:15.116Z,4.70
2018-11-29T20:55:44.179Z,4.60
2018-11-29T20:58:13.201Z,4.60
2018-11-29T21:00:42.208Z,4.60
2018-11-29T21:03:11.784Z,4.60
2018-11-29T21:05:42.007Z,4.60
2018-11-29T21:08:12.182Z,4.60
2018-11-29T21:10:41.630Z,4.60
2018-11-29T21:13:11.284Z,4.60
2018-11-29T21:15:41.980Z,4.60
2018-11-29T21:18:12.453Z,4.60
2018-11-29T21:20:42.888Z,4.70
2018-11-29T21:23:14.330Z,4.70
2018-11-29T21:25:43.796Z,4.80
2018-11-29T21:28:14.399Z,4.90
2018-11-29T21:30:44.298Z,4.90
2018-11-29T21:33:13.984Z,4.90
2018-11-29T21:35:43.211Z,4.90
2018-11-29T21:38:14.430Z,4.90
2018-11-29T21:40:53.698Z,4.90
2018-11-29T21:43:22.759Z,4.90
2018-11-29T21:45:53.465Z,4.90
2018-11-29T21:48:22.558Z,4.90
2018-11-29T21:50:51.574Z,4.90
2018-11-29T21:53:20.626Z,4.90
2018-11-29T21:55:50.218Z,4.90
2018-11-29T21:58:19.596Z,4.90
2018-11-29T22:00:48.961Z,4.90
2018-11-29T22:03:18.274Z,4.90
2018-11-29T22:05:48.878Z,4.90
2018-11-29T22:08:18.260Z,4.90
2018-11-29T22:10:47.654Z,4.90
2018-11-29T22:13:17.085Z,4.80
2018-11-29T22:15:46.482Z,4.70
2018-11-29T22:18:18.885Z,4.70
2018-11-29T22:20:49.649Z,4.70
2018-11-29T22:23:19.043Z,4.60
2018-11-29T22:25:48.425Z,4.60
2018-11-29T22:28:17.728Z,4.60
2018-11-29T22:30:47.061Z,4.60
2018-11-29T22:33:16.504Z,4.60
2018-11-29T22:35:45.958Z,4.60
2018-11-29T22:38:15.380Z,4.60
2018-11-29T22:40:44.493Z,4.60
2018-11-29T22:43:13.558Z,4.60
2018-11-29T22:45:42.702Z,4.60
2018-11-29T22:48:12.038Z,4.60
2018-11-29T22:50:41.160Z,4.60
2018-11-29T22:53:10.208Z,4.60
2018-11-29T22:55:40.076Z,4.60
2018-11-29T22:58:09.524Z,4.60
2018-11-29T23:00:54.135Z,4.60
2018-11-29T23:03:23.183Z,4.60
2018-11-29T23:05:52.241Z,4.60
2018-11-29T23:08:21.263Z,4.60
2018-11-29T23:10:52.193Z,4.60
2018-11-29T23:13:21.218Z,4.60
2018-11-29T23:15:50.293Z,4.60
2018-11-29T23:18:19.327Z,4.60
2018-11-29T23:20:48.366Z,4.60
2018-11-29T23:23:17.394Z,4.70
2018-11-29T23:25:46.515Z,4.60
2018-11-29T23:28:15.542Z,4.70
2018-11-29T23:30:44.607Z,4.70
2018-11-29T23:33:13.604Z,4.70
2018-11-29T23:35:42.629Z,4.70
2018-11-29T23:38:11.705Z,4.70
2018-11-29T23:40:40.830Z,4.70
2018-11-29T23:43:09.883Z,4.60
2018-11-29T23:45:39.095Z,4.60
2018-11-29T23:48:08.121Z,4.60
2018-11-29T23:50:37.177Z,4.60
2018-11-29T23:53:07.012Z,4.60
2018-11-29T23:55:36.001Z,4.60
2018-11-29T23:58:05.182Z,4.60
